createdAt,value
2022-09-08T00:00:11.068Z,17.27
2022-09-08T00:01:10.976Z,17.27
2022-09-08T00:02:10.901Z,17.14
2022-09-08T00:03:10.857Z,17.10
2022-09-08T00:04:10.783Z,17.14
2022-09-08T00:05:10.699Z,17.09
2022-09-08T00:06:10.586Z,17.10
2022-09-08T00:07:10.475Z,17.07
2022-09-08T00:08:10.392Z,17.10
2022-09-08T00:09:10.345Z,17.09
2022-09-08T00:10:10.224Z,17.07
2022-09-08T00:11:10.142Z,17.07
2022-09-08T00:12:10.097Z,17.10
2022-09-08T00:13:09.985Z,17.07
2022-09-08T00:14:09.882Z,17.06
2022-09-08T00:15:09.793Z,17.01
2022-09-08T00:16:10.198Z,16.99
2022-09-08T00:17:09.636Z,17.01
2022-09-08T00:18:09.545Z,16.98
2022-09-08T00:19:09.462Z,17.02
2022-09-08T00:20:09.381Z,17.02
2022-09-08T00:21:09.300Z,16.98
2022-09-08T00:22:09.258Z,17.02
2022-09-08T00:23:09.148Z,17.02
2022-09-08T00:24:09.067Z,17.04
2022-09-08T00:25:08.951Z,16.97
2022-09-08T00:26:08.872Z,17.01
2022-09-08T00:27:08.814Z,16.99
2022-09-08T00:28:08.754Z,16.97
2022-09-08T00:29:08.678Z,16.88
2022-09-08T00:30:08.536Z,16.98
2022-09-08T00:31:08.519Z,16.94
2022-09-08T00:32:08.367Z,16.92
2022-09-08T00:33:08.345Z,16.80
2022-09-08T00:34:08.202Z,16.91
2022-09-08T00:35:08.100Z,16.90
2022-09-08T00:36:08.044Z,16.92
2022-09-08T00:37:07.951Z,16.83
2022-09-08T00:38:07.913Z,16.90
2022-09-08T00:39:07.784Z,16.72
2022-09-08T00:40:07.753Z,16.69
2022-09-08T00:41:07.628Z,16.72
2022-09-08T00:42:07.570Z,16.73
2022-09-08T00:43:07.438Z,16.79
2022-09-08T00:44:07.350Z,16.70
2022-09-08T00:45:07.264Z,16.69
2022-09-08T00:46:07.218Z,16.69
2022-09-08T00:47:07.127Z,16.65
2022-09-08T00:48:07.005Z,16.64
2022-09-08T00:49:06.932Z,16.70
2022-09-08T00:50:06.838Z,16.70
2022-09-08T00:51:06.782Z,16.67
2022-09-08T00:52:06.703Z,16.62
2022-09-08T00:53:06.592Z,16.69
2022-09-08T00:54:06.533Z,16.64
2022-09-08T00:55:06.449Z,16.67
2022-09-08T00:56:06.342Z,16.61
2022-09-08T00:57:06.268Z,16.64
2022-09-08T00:58:06.163Z,16.51
2022-09-08T00:59:06.075Z,16.54
2022-09-08T01:00:05.989Z,16.52
2022-09-08T01:01:05.925Z,16.49
2022-09-08T01:02:05.964Z,16.42
2022-09-08T01:03:05.740Z,16.47
2022-09-08T01:04:05.654Z,16.34
2022-09-08T01:05:05.606Z,16.37
2022-09-08T01:06:05.520Z,16.42
2022-09-08T01:07:05.400Z,16.26
2022-09-08T01:08:05.310Z,16.40
2022-09-08T01:09:05.225Z,16.39
2022-09-08T01:10:05.138Z,16.36
2022-09-08T01:11:05.059Z,16.32
2022-09-08T01:12:04.979Z,16.33
2022-09-08T01:13:04.883Z,16.36
2022-09-08T01:14:04.832Z,16.37
2022-09-08T01:15:04.715Z,16.34
2022-09-08T01:16:04.657Z,16.40
2022-09-08T01:17:04.540Z,16.36
2022-09-08T01:18:04.478Z,16.34
2022-09-08T01:19:04.408Z,16.33
2022-09-08T01:20:04.355Z,16.21
2022-09-08T01:21:04.217Z,16.16
2022-09-08T01:22:04.140Z,16.09
2022-09-08T01:23:04.030Z,16.09
2022-09-08T01:24:03.966Z,16.09
2022-09-08T01:25:03.866Z,16.21
2022-09-08T01:26:03.783Z,16.09
2022-09-08T01:27:03.720Z,16.14
2022-09-08T01:28:03.650Z,16.16
2022-09-08T01:29:03.549Z,16.22
2022-09-08T01:30:03.470Z,16.09
2022-09-08T01:31:03.420Z,16.14
2022-09-08T01:32:03.274Z,16.10
2022-09-08T01:33:03.253Z,16.13
2022-09-08T01:34:03.130Z,15.99
2022-09-08T01:35:03.019Z,16.02
2022-09-08T01:36:02.952Z,15.96
2022-09-08T01:37:02.852Z,15.98
2022-09-08T01:38:02.767Z,16.05
2022-09-08T01:39:02.680Z,16.13
2022-09-08T01:40:02.733Z,16.00
2022-09-08T01:41:02.502Z,16.00
2022-09-08T01:42:02.462Z,16.02
2022-09-08T01:43:02.380Z,15.99
2022-09-08T01:44:02.257Z,15.91
2022-09-08T01:45:02.204Z,15.96
2022-09-08T01:46:02.184Z,15.88
2022-09-08T01:47:02.021Z,15.91
2022-09-08T01:48:01.906Z,15.95
2022-09-08T01:49:01.846Z,15.95
2022-09-08T01:50:01.732Z,15.93
2022-09-08T01:51:01.689Z,15.96
2022-09-08T01:52:01.596Z,15.90
2022-09-08T01:53:01.490Z,15.95
2022-09-08T01:54:01.402Z,15.90
2022-09-08T01:55:01.314Z,15.87
2022-09-08T01:56:01.253Z,15.76
2022-09-08T01:57:01.139Z,15.77
2022-09-08T01:58:01.087Z,15.81
2022-09-08T01:59:00.969Z,15.84
2022-09-08T02:00:00.915Z,15.87
2022-09-08T02:01:00.805Z,15.88
2022-09-08T02:02:00.903Z,15.85
2022-09-08T02:03:00.623Z,15.83
2022-09-08T02:04:00.563Z,15.84
2022-09-08T02:05:00.475Z,15.73
2022-09-08T02:06:00.427Z,15.73
2022-09-08T02:07:00.291Z,15.72
2022-09-08T02:08:00.210Z,15.78
2022-09-08T02:09:00.128Z,15.72
2022-09-08T02:10:00.035Z,15.78
2022-09-08T02:10:59.957Z,15.73
2022-09-08T02:11:59.862Z,15.66
2022-09-08T02:12:59.787Z,15.69
2022-09-08T02:13:59.690Z,15.69
2022-09-08T02:14:59.602Z,15.66
2022-09-08T02:15:59.578Z,15.76
2022-09-08T02:16:59.433Z,15.72
2022-09-08T02:17:59.374Z,15.73
2022-09-08T02:18:59.259Z,15.80
2022-09-08T02:19:59.208Z,15.72
2022-09-08T02:20:59.093Z,15.78
2022-09-08T02:21:59.005Z,15.72
2022-09-08T02:22:58.935Z,15.76
2022-09-08T02:23:58.861Z,15.83
2022-09-08T02:24:58.756Z,15.77
2022-09-08T02:25:58.672Z,15.84
2022-09-08T02:26:58.581Z,15.87
2022-09-08T02:27:58.492Z,15.88
2022-09-08T02:28:58.418Z,15.87
2022-09-08T02:29:58.320Z,15.83
2022-09-08T02:30:58.293Z,15.84
2022-09-08T02:31:58.170Z,15.88
2022-09-08T02:32:58.069Z,15.87
2022-09-08T02:33:58.006Z,15.90
2022-09-08T02:34:57.911Z,15.85
2022-09-08T02:35:57.805Z,15.90
2022-09-08T02:36:57.782Z,15.93
2022-09-08T02:37:57.637Z,15.88
2022-09-08T02:38:57.551Z,15.99
2022-09-08T02:39:57.524Z,15.95
2022-09-08T02:40:57.377Z,15.87
2022-09-08T02:41:57.294Z,15.96
2022-09-08T02:42:57.255Z,15.88
2022-09-08T02:43:57.158Z,15.90
2022-09-08T02:44:57.047Z,15.96
2022-09-08T02:45:56.963Z,15.91
2022-09-08T02:46:56.881Z,15.87
2022-09-08T02:47:56.776Z,15.91
2022-09-08T02:48:56.727Z,15.90
2022-09-08T02:49:56.608Z,15.91
2022-09-08T02:50:56.530Z,15.95
2022-09-08T02:51:56.469Z,15.90
2022-09-08T02:52:56.368Z,15.87
2022-09-08T02:53:56.326Z,15.91
2022-09-08T02:54:56.189Z,15.95
2022-09-08T02:55:56.134Z,15.87
2022-09-08T02:56:56.048Z,15.87
2022-09-08T02:57:55.922Z,15.87
2022-09-08T02:58:55.842Z,15.95
2022-09-08T02:59:55.764Z,15.99
2022-09-08T03:00:55.668Z,15.90
2022-09-08T03:01:55.695Z,15.96
2022-09-08T03:02:55.512Z,15.85
2022-09-08T03:03:55.467Z,15.96
2022-09-08T03:04:55.323Z,15.91
2022-09-08T03:05:55.262Z,15.98
2022-09-08T03:06:55.163Z,15.87
2022-09-08T03:07:55.067Z,15.96
2022-09-08T03:08:55.043Z,15.96
2022-09-08T03:09:54.897Z,15.88
2022-09-08T03:10:54.847Z,15.85
2022-09-08T03:11:54.771Z,15.91
2022-09-08T03:12:54.639Z,15.87
2022-09-08T03:13:54.574Z,15.93
2022-09-08T03:14:54.475Z,15.88
2022-09-08T03:15:54.433Z,15.95
2022-09-08T03:16:54.310Z,15.91
2022-09-08T03:17:54.253Z,15.84
2022-09-08T03:18:54.209Z,15.90
2022-09-08T03:19:54.040Z,15.95
2022-09-08T03:20:53.965Z,15.95
2022-09-08T03:21:53.873Z,15.95
2022-09-08T03:22:53.805Z,15.93
2022-09-08T03:23:53.718Z,15.98
2022-09-08T03:24:53.613Z,15.91
2022-09-08T03:25:53.531Z,15.98
2022-09-08T03:26:53.447Z,15.98
2022-09-08T03:27:53.358Z,16.06
2022-09-08T03:28:53.277Z,16.00
2022-09-08T03:29:53.194Z,15.91
2022-09-08T03:30:53.228Z,15.90
2022-09-08T03:31:53.021Z,15.88
2022-09-08T03:32:52.928Z,15.91
2022-09-08T03:33:52.859Z,15.95
2022-09-08T03:34:52.769Z,16.00
2022-09-08T03:35:52.702Z,16.03
2022-09-08T03:36:52.589Z,15.96
2022-09-08T03:37:52.515Z,16.02
2022-09-08T03:38:52.449Z,15.96
2022-09-08T03:39:52.375Z,16.09
2022-09-08T03:40:52.247Z,16.06
2022-09-08T03:41:52.206Z,16.10
2022-09-08T03:42:52.093Z,16.13
2022-09-08T03:43:52.056Z,16.14
2022-09-08T03:44:51.909Z,15.98
2022-09-08T03:45:51.903Z,15.96
2022-09-08T03:46:51.740Z,16.05
2022-09-08T03:47:51.665Z,16.06
2022-09-08T03:48:51.565Z,16.00
2022-09-08T03:49:51.478Z,16.00
2022-09-08T03:50:51.390Z,15.96
2022-09-08T03:51:51.300Z,16.10
2022-09-08T03:52:51.289Z,16.17
2022-09-08T03:53:51.139Z,16.13
2022-09-08T03:54:51.103Z,16.10
2022-09-08T03:55:50.973Z,16.06
2022-09-08T03:56:50.908Z,16.08
2022-09-08T03:57:50.801Z,16.14
2022-09-08T03:58:50.716Z,16.08
2022-09-08T03:59:50.626Z,16.08
2022-09-08T04:00:50.549Z,16.03
2022-09-08T04:01:50.483Z,16.06
2022-09-08T04:02:50.451Z,16.09
2022-09-08T04:03:50.321Z,16.05
2022-09-08T04:04:51.994Z,16.05
2022-09-08T04:05:50.121Z,16.13
2022-09-08T04:06:50.039Z,16.09
2022-09-08T04:07:49.945Z,16.10
2022-09-08T04:08:49.850Z,16.06
2022-09-08T04:09:49.791Z,16.10
2022-09-08T04:10:49.678Z,16.16
2022-09-08T04:11:49.601Z,16.03
2022-09-08T04:12:49.513Z,16.14
2022-09-08T04:13:49.471Z,16.08
2022-09-08T04:14:49.337Z,16.08
2022-09-08T04:15:49.330Z,16.10
2022-09-08T04:16:49.206Z,16.13
2022-09-08T04:17:49.108Z,16.16
2022-09-08T04:18:48.993Z,16.17
2022-09-08T04:19:53.474Z,16.09
2022-09-08T04:20:48.835Z,16.09
2022-09-08T04:21:48.736Z,16.24
2022-09-08T04:22:48.710Z,16.18
2022-09-08T04:23:48.573Z,16.13
2022-09-08T04:24:51.382Z,16.09
2022-09-08T04:25:48.399Z,16.14
2022-09-08T04:26:48.312Z,16.22
2022-09-08T04:27:48.243Z,16.21
2022-09-08T04:28:48.142Z,16.21
2022-09-08T04:29:48.062Z,16.14
2022-09-08T04:30:48.014Z,16.17
2022-09-08T04:31:47.884Z,16.24
2022-09-08T04:32:47.811Z,16.21
2022-09-08T04:33:47.721Z,16.08
2022-09-08T04:34:47.639Z,16.14
2022-09-08T04:35:47.552Z,16.13
2022-09-08T04:36:47.518Z,16.24
2022-09-08T04:37:47.382Z,16.17
2022-09-08T04:38:47.330Z,16.25
2022-09-08T04:39:47.273Z,16.26
2022-09-08T04:40:47.124Z,16.21
2022-09-08T04:41:47.063Z,16.36
2022-09-08T04:42:46.983Z,16.39
2022-09-08T04:43:46.923Z,16.40
2022-09-08T04:44:46.774Z,16.37
2022-09-08T04:45:46.724Z,16.24
2022-09-08T04:46:46.651Z,16.34
2022-09-08T04:47:46.555Z,16.33
2022-09-08T04:48:46.453Z,16.34
2022-09-08T04:49:46.406Z,16.36
2022-09-08T04:50:46.266Z,16.43
2022-09-08T04:51:46.193Z,16.43
2022-09-08T04:52:46.095Z,16.40
2022-09-08T04:53:46.004Z,16.43
2022-09-08T04:54:45.914Z,16.42
2022-09-08T04:55:45.847Z,16.37
2022-09-08T04:56:45.753Z,16.46
2022-09-08T04:57:45.669Z,16.54
2022-09-08T04:58:45.646Z,16.59
2022-09-08T04:59:45.495Z,16.62
2022-09-08T05:00:45.411Z,16.58
2022-09-08T05:01:45.409Z,16.61
2022-09-08T05:02:45.255Z,16.64
2022-09-08T05:03:45.197Z,16.59
2022-09-08T05:04:45.169Z,16.59
2022-09-08T05:05:44.978Z,16.58
2022-09-08T05:06:44.907Z,16.61
2022-09-08T05:07:44.829Z,16.55
2022-09-08T05:08:44.723Z,16.62
2022-09-08T05:09:44.680Z,16.62
2022-09-08T05:10:44.551Z,16.64
2022-09-08T05:11:44.465Z,16.57
2022-09-08T05:12:44.393Z,16.65
2022-09-08T05:13:44.349Z,16.64
2022-09-08T05:14:44.214Z,16.73
2022-09-08T05:15:44.173Z,16.77
2022-09-08T05:16:44.045Z,16.64
2022-09-08T05:17:43.988Z,16.76
2022-09-08T05:18:43.872Z,16.76
2022-09-08T05:19:43.784Z,16.76
2022-09-08T05:20:43.700Z,16.70
2022-09-08T05:21:43.653Z,16.74
2022-09-08T05:22:45.152Z,16.73
2022-09-08T05:23:43.506Z,16.77
2022-09-08T05:24:43.382Z,16.69
2022-09-08T05:25:43.297Z,16.73
2022-09-08T05:26:43.189Z,16.83
2022-09-08T05:27:43.103Z,16.87
2022-09-08T05:28:43.018Z,16.94
2022-09-08T05:29:42.932Z,16.87
2022-09-08T05:30:42.903Z,16.95
2022-09-08T05:31:42.764Z,16.94
2022-09-08T05:32:42.747Z,16.95
2022-09-08T05:33:42.599Z,16.95
2022-09-08T05:34:42.507Z,17.01
2022-09-08T05:35:42.428Z,16.99
2022-09-08T05:36:42.345Z,16.97
2022-09-08T05:37:42.298Z,16.92
2022-09-08T05:38:42.178Z,17.01
2022-09-08T05:39:42.168Z,16.94
2022-09-08T05:40:42.033Z,16.95
2022-09-08T05:41:41.922Z,16.95
2022-09-08T05:42:41.819Z,17.04
2022-09-08T05:43:41.770Z,17.06
2022-09-08T05:44:41.656Z,17.09
2022-09-08T05:45:41.598Z,16.99
2022-09-08T05:46:41.605Z,17.07
2022-09-08T05:47:41.412Z,17.10
2022-09-08T05:48:41.325Z,17.10
2022-09-08T05:49:41.248Z,17.14
2022-09-08T05:50:41.188Z,17.16
2022-09-08T05:51:41.052Z,17.19
2022-09-08T05:52:40.979Z,17.25
2022-09-08T05:53:40.892Z,17.10
2022-09-08T05:54:40.816Z,17.10
2022-09-08T05:55:40.724Z,17.20
2022-09-08T05:56:40.647Z,17.31
2022-09-08T05:57:40.551Z,17.27
2022-09-08T05:58:40.462Z,17.38
2022-09-08T05:59:40.387Z,17.45
2022-09-08T06:00:40.291Z,17.52
2022-09-08T06:01:40.207Z,17.52
2022-09-08T06:02:40.261Z,17.56
2022-09-08T06:03:40.391Z,17.66
2022-09-08T06:04:39.955Z,17.69
2022-09-08T06:05:39.868Z,17.76
2022-09-08T06:06:39.788Z,17.94
2022-09-08T06:07:39.704Z,17.97
2022-09-08T06:08:39.653Z,17.99
2022-09-08T06:09:39.527Z,18.08
2022-09-08T06:10:39.436Z,18.21
2022-09-08T06:11:39.358Z,18.27
2022-09-08T06:12:39.273Z,18.31
2022-09-08T06:13:39.187Z,18.42
2022-09-08T06:14:39.099Z,18.41
2022-09-08T06:15:39.049Z,18.48
2022-09-08T06:16:39.019Z,18.56
2022-09-08T06:17:38.895Z,18.61
2022-09-08T06:18:38.803Z,18.66
2022-09-08T06:19:38.678Z,18.75
2022-09-08T06:20:38.597Z,18.76
2022-09-08T06:21:38.547Z,18.88
2022-09-08T06:22:38.424Z,19.04
2022-09-08T06:23:38.339Z,19.20
2022-09-08T06:24:38.258Z,19.30
2022-09-08T06:25:38.169Z,19.39
2022-09-08T06:26:38.137Z,19.50
2022-09-08T06:27:38.011Z,19.54
2022-09-08T06:28:37.933Z,19.53
2022-09-08T06:29:37.843Z,19.62
2022-09-08T06:30:56.494Z,19.68
2022-09-08T06:31:37.789Z,19.64
2022-09-08T06:32:37.582Z,19.70
2022-09-08T06:33:37.570Z,19.70
2022-09-08T06:34:37.407Z,19.77
2022-09-08T06:35:37.329Z,19.81
2022-09-08T06:36:37.239Z,19.90
2022-09-08T06:37:37.154Z,19.90
2022-09-08T06:38:37.075Z,19.87
2022-09-08T06:39:37.141Z,20.00
2022-09-08T06:40:36.955Z,20.02
2022-09-08T06:41:36.839Z,20.05
2022-09-08T06:42:36.734Z,20.15
2022-09-08T06:43:36.649Z,20.11
2022-09-08T06:44:36.628Z,20.15
2022-09-08T06:45:36.497Z,20.15
2022-09-08T06:46:36.398Z,20.09
2022-09-08T06:47:36.320Z,20.19
2022-09-08T06:48:36.216Z,20.19
2022-09-08T06:49:36.152Z,20.26
2022-09-08T06:50:36.073Z,20.22
2022-09-08T06:51:35.981Z,20.29
2022-09-08T06:52:59.950Z,20.30
2022-09-08T06:53:35.878Z,20.23
2022-09-08T06:54:35.722Z,20.30
2022-09-08T06:55:35.870Z,20.29
2022-09-08T06:57:39.230Z,20.39
2022-09-08T06:58:35.463Z,20.34
2022-09-08T06:59:35.325Z,20.30
2022-09-08T07:00:35.237Z,20.27
2022-09-08T07:01:35.159Z,20.30
2022-09-08T07:02:35.106Z,20.33
2022-09-08T07:03:37.425Z,20.27
2022-09-08T07:04:34.876Z,20.34
2022-09-08T07:05:34.791Z,20.29
2022-09-08T07:06:34.749Z,20.29
2022-09-08T07:07:34.682Z,20.27
2022-09-08T07:08:34.579Z,20.27
2022-09-08T07:09:34.457Z,20.33
2022-09-08T07:10:34.374Z,20.29
2022-09-08T07:11:34.350Z,20.19
2022-09-08T07:12:34.207Z,20.19
2022-09-08T07:13:34.237Z,20.25
2022-09-08T07:14:34.038Z,20.17
2022-09-08T07:15:33.997Z,20.17
2022-09-08T07:16:33.949Z,20.17
2022-09-08T07:17:33.782Z,20.19
2022-09-08T07:18:33.788Z,20.17
2022-09-08T07:19:40.866Z,20.11
2022-09-08T07:20:33.531Z,20.18
2022-09-08T07:21:33.446Z,20.18
2022-09-08T07:22:33.434Z,20.11
2022-09-08T07:23:33.333Z,20.18
2022-09-08T07:24:33.198Z,20.17
2022-09-08T07:25:33.107Z,20.18
2022-09-08T07:26:33.045Z,20.18
2022-09-08T07:27:32.992Z,20.15
2022-09-08T07:28:32.859Z,20.11
2022-09-08T07:29:32.775Z,20.08
2022-09-08T07:30:32.693Z,20.14
2022-09-08T07:31:32.645Z,20.14
2022-09-08T07:32:32.526Z,20.18
2022-09-08T07:33:32.552Z,20.18
2022-09-08T07:34:32.391Z,20.15
2022-09-08T07:35:32.285Z,20.15
2022-09-08T07:36:32.220Z,20.19
2022-09-08T07:37:32.098Z,20.18
2022-09-08T07:38:32.032Z,20.29
2022-09-08T07:39:31.977Z,20.32
2022-09-08T07:40:31.851Z,20.29
2022-09-08T07:41:31.778Z,20.26
2022-09-08T07:42:31.686Z,20.14
2022-09-08T07:43:31.740Z,20.17
2022-09-08T07:44:31.532Z,20.14
2022-09-08T07:45:31.485Z,20.05
2022-09-08T07:46:31.382Z,20.02
2022-09-08T07:47:31.301Z,20.05
2022-09-08T07:48:31.221Z,20.05
2022-09-08T07:49:31.105Z,20.04
2022-09-08T07:50:52.067Z,20.09
2022-09-08T07:51:51.964Z,20.02
2022-09-08T07:52:30.853Z,20.04
2022-09-08T07:53:30.777Z,20.02
2022-09-08T07:54:30.681Z,20.11
2022-09-08T07:55:34.695Z,20.15
2022-09-08T07:56:59.228Z,20.14
2022-09-08T07:57:39.277Z,20.15
2022-09-08T07:58:30.346Z,20.15
2022-09-08T07:59:30.288Z,20.27
2022-09-08T08:00:55.740Z,20.18
2022-09-08T13:30:30.818Z,18.36
2022-09-08T13:31:20.583Z,18.36
2022-09-08T13:40:59.292Z,18.49
2022-09-08T13:41:41.652Z,18.48
2022-09-08T15:52:53.045Z,23.46
2022-09-08T15:53:39.035Z,23.85
2022-09-08T17:53:29.661Z,17.84
2022-09-08T17:54:28.065Z,17.88
2022-09-08T17:55:27.983Z,17.96
2022-09-08T17:56:27.896Z,17.90
2022-09-08T17:57:27.812Z,17.96
2022-09-08T17:58:27.733Z,17.84
2022-09-08T17:59:27.704Z,17.93
2022-09-08T18:00:27.556Z,17.87
2022-09-08T18:01:27.511Z,17.83
2022-09-08T18:02:27.423Z,17.86
2022-09-08T18:03:27.311Z,17.79
2022-09-08T18:04:27.283Z,17.87
2022-09-08T18:05:27.142Z,17.99
2022-09-08T18:06:27.097Z,18.02
2022-09-08T18:07:27.004Z,17.99
2022-09-08T18:08:26.892Z,17.96
2022-09-08T18:09:26.826Z,18.01
2022-09-08T18:10:26.720Z,17.87
2022-09-08T18:11:26.636Z,17.99
2022-09-08T18:12:26.543Z,17.93
2022-09-08T18:13:26.464Z,18.01
2022-09-08T18:14:26.378Z,17.97
2022-09-08T18:15:26.328Z,18.12
2022-09-08T18:16:26.276Z,18.21
2022-09-08T18:17:26.159Z,18.31
2022-09-08T18:18:26.064Z,18.28
2022-09-08T18:19:30.702Z,18.33
2022-09-08T18:20:27.644Z,18.31
2022-09-08T18:21:30.126Z,18.28
2022-09-08T18:22:31.081Z,18.28
2022-09-08T18:23:25.625Z,18.21
2022-09-08T18:24:25.544Z,18.17
2022-09-08T18:25:25.465Z,18.09
2022-09-08T18:26:25.366Z,18.12
2022-09-08T18:27:25.330Z,18.01
2022-09-08T18:28:25.192Z,17.94
2022-09-08T18:29:25.117Z,17.94
2022-09-08T18:30:25.046Z,17.91
2022-09-08T18:31:25.133Z,17.81
2022-09-08T18:32:24.920Z,17.86
2022-09-08T18:33:24.781Z,17.84
2022-09-08T18:34:24.694Z,17.96
2022-09-08T18:35:24.632Z,17.84
2022-09-08T18:36:24.544Z,17.86
2022-09-08T18:37:45.451Z,17.91
2022-09-08T18:38:24.362Z,17.87
2022-09-08T18:39:24.273Z,17.90
2022-09-08T18:40:24.288Z,17.79
2022-09-08T18:41:24.134Z,17.84
2022-09-08T18:42:24.023Z,17.71
2022-09-08T18:43:23.997Z,17.71
2022-09-08T18:44:23.883Z,17.72
2022-09-08T18:45:23.768Z,17.76
2022-09-08T18:46:23.681Z,17.66
2022-09-08T18:47:23.601Z,17.63
2022-09-08T18:48:23.579Z,17.62
2022-09-08T18:49:23.437Z,17.53
2022-09-08T18:50:23.345Z,17.56
2022-09-08T18:51:59.181Z,17.46
2022-09-08T18:52:23.181Z,17.37
2022-09-08T18:53:23.089Z,17.34
2022-09-08T18:54:23.005Z,17.35
2022-09-08T18:55:22.970Z,17.35
2022-09-08T18:56:22.846Z,17.41
2022-09-08T18:57:22.820Z,17.35
2022-09-08T18:58:22.723Z,17.41
2022-09-08T18:59:22.590Z,17.43
2022-09-08T19:00:22.502Z,17.32
2022-09-08T19:01:22.538Z,17.39
2022-09-08T19:02:22.434Z,17.34
2022-09-08T19:03:22.243Z,17.30
2022-09-08T19:04:22.175Z,17.38
2022-09-08T19:05:22.096Z,17.41
2022-09-08T19:06:21.994Z,17.35
2022-09-08T19:07:21.909Z,17.30
2022-09-08T19:10:29.347Z,17.37
2022-09-08T19:11:29.212Z,17.34
2022-09-08T19:12:29.134Z,17.30
2022-09-08T19:13:29.047Z,17.35
2022-09-08T19:14:28.950Z,17.35
2022-09-08T19:15:28.868Z,17.32
2022-09-08T19:16:28.873Z,17.31
2022-09-08T19:17:28.731Z,17.38
2022-09-08T19:18:28.651Z,17.46
2022-09-08T19:19:28.531Z,17.46
2022-09-08T19:20:28.439Z,17.53
2022-09-08T19:21:28.360Z,17.62
2022-09-08T19:22:28.277Z,17.65
2022-09-08T19:23:28.191Z,17.68
2022-09-08T19:24:28.105Z,17.76
2022-09-08T19:25:28.029Z,17.90
2022-09-08T19:26:27.938Z,17.86
2022-09-08T19:27:27.863Z,17.88
2022-09-08T19:28:27.768Z,17.83
2022-09-08T19:29:27.702Z,17.91
2022-09-08T19:30:27.610Z,17.91
2022-09-08T19:31:27.562Z,17.91
2022-09-08T19:32:27.428Z,17.87
2022-09-08T19:33:27.344Z,17.91
2022-09-08T19:34:27.303Z,17.91
2022-09-08T19:35:27.170Z,17.93
2022-09-08T19:36:27.125Z,17.96
2022-09-08T19:37:27.001Z,17.97
2022-09-08T19:38:26.915Z,17.96
2022-09-08T19:39:26.863Z,18.06
2022-09-08T19:40:26.755Z,18.02
2022-09-08T19:41:26.678Z,18.02
2022-09-08T19:42:26.582Z,17.96
2022-09-08T19:43:26.493Z,17.96
2022-09-08T19:44:26.415Z,17.97
2022-09-08T19:45:26.323Z,17.94
2022-09-08T19:46:26.313Z,17.97
2022-09-08T19:47:26.155Z,18.01
2022-09-08T19:48:26.070Z,18.08
2022-09-08T19:49:26.007Z,18.06
2022-09-08T19:50:25.920Z,18.05
2022-09-08T19:51:25.823Z,17.99
2022-09-08T19:52:25.732Z,18.12
2022-09-08T19:53:25.643Z,17.97
2022-09-08T19:54:25.563Z,17.97
2022-09-08T19:55:25.481Z,18.03
2022-09-08T19:56:25.392Z,17.96
2022-09-08T19:57:25.310Z,18.02
2022-09-08T19:58:25.219Z,18.05
2022-09-08T19:59:25.136Z,18.02
2022-09-08T20:00:25.099Z,18.11
2022-09-08T20:01:24.969Z,18.18
2022-09-08T20:02:24.897Z,18.12
2022-09-08T20:03:24.801Z,18.18
2022-09-08T20:04:24.766Z,18.18
2022-09-08T20:05:24.633Z,18.18
2022-09-08T20:06:24.546Z,18.20
2022-09-08T20:07:24.455Z,18.18
2022-09-08T20:08:24.372Z,18.18
2022-09-08T20:09:24.288Z,18.20
2022-09-08T20:10:24.199Z,18.21
2022-09-08T20:11:24.612Z,18.15
2022-09-08T20:12:24.034Z,18.13
2022-09-08T20:13:23.947Z,18.21
2022-09-08T20:14:23.891Z,18.24
2022-09-08T20:15:26.476Z,18.26
2022-09-08T20:16:23.735Z,18.17
2022-09-08T20:17:23.619Z,18.09
2022-09-08T20:18:24.787Z,18.02
2022-09-08T20:19:23.432Z,17.99
2022-09-08T20:20:24.544Z,17.91
2022-09-08T20:21:23.259Z,17.94
2022-09-08T20:22:23.260Z,17.94
2022-09-08T20:23:23.096Z,17.88
2022-09-08T20:24:24.652Z,17.86
2022-09-08T20:25:22.976Z,17.72
2022-09-08T20:26:22.838Z,17.73
2022-09-08T20:27:22.750Z,17.59
2022-09-08T20:28:22.673Z,17.56
2022-09-08T20:29:22.624Z,17.53
2022-09-08T20:33:31.326Z,17.24
2022-09-08T20:34:23.715Z,17.20
2022-09-08T20:36:28.195Z,17.09
2022-09-08T20:37:28.084Z,17.14
2022-09-08T20:39:32.509Z,17.06
2022-09-08T20:40:32.379Z,17.01
2022-09-08T20:44:18.347Z,17.13
2022-09-08T20:45:10.940Z,17.04
2022-09-08T20:46:10.871Z,17.12
2022-09-08T20:47:10.761Z,17.07
2022-09-08T20:48:10.720Z,17.02
2022-09-08T20:49:10.595Z,17.14
2022-09-08T20:50:10.512Z,17.14
2022-09-08T20:51:10.427Z,17.24
2022-09-08T20:52:10.390Z,17.13
2022-09-08T20:53:10.296Z,17.20
2022-09-08T20:54:10.170Z,17.31
2022-09-08T20:55:10.080Z,17.28
2022-09-08T20:56:10.006Z,17.28
2022-09-08T20:57:09.915Z,17.38
2022-09-08T20:58:09.832Z,17.31
2022-09-08T20:59:09.806Z,17.38
2022-09-08T21:00:09.673Z,17.47
2022-09-08T21:01:09.669Z,17.45
2022-09-08T21:02:09.515Z,17.37
2022-09-08T21:03:09.412Z,17.38
2022-09-08T21:04:09.320Z,17.41
2022-09-08T21:05:09.306Z,17.38
2022-09-08T21:06:09.150Z,17.52
2022-09-08T21:07:09.122Z,17.46
2022-09-08T21:08:08.977Z,17.56
2022-09-08T21:09:08.895Z,17.71
2022-09-08T21:10:08.833Z,17.66
2022-09-08T21:11:08.722Z,17.69
2022-09-08T21:12:08.640Z,17.78
2022-09-08T21:13:08.550Z,17.81
2022-09-08T21:14:08.511Z,17.76
2022-09-08T21:15:08.382Z,17.78
2022-09-08T21:16:08.346Z,17.90
2022-09-08T21:17:08.221Z,17.86
2022-09-08T21:18:08.131Z,17.84
2022-09-08T21:19:08.083Z,17.86
2022-09-08T21:20:07.957Z,17.86
2022-09-08T21:21:07.872Z,17.91
2022-09-08T21:22:07.799Z,17.99
2022-09-08T21:23:07.710Z,17.99
2022-09-08T21:24:07.665Z,18.08
2022-09-08T21:25:07.531Z,18.01
2022-09-08T21:26:07.454Z,18.03
2022-09-08T21:27:07.358Z,18.11
2022-09-08T21:28:07.274Z,18.11
2022-09-08T21:30:49.979Z,18.09
2022-09-08T21:31:50.009Z,18.09
2022-09-08T21:33:43.098Z,18.11
2022-09-08T21:34:43.016Z,18.05
2022-09-08T21:35:42.922Z,18.08
2022-09-08T21:36:42.808Z,18.01
2022-09-08T21:37:42.786Z,18.12
2022-09-08T21:38:42.688Z,17.99
2022-09-08T21:39:42.633Z,18.01
2022-09-08T21:40:42.532Z,17.87
2022-09-08T21:41:42.506Z,17.88
2022-09-08T21:42:42.500Z,17.93
2022-09-08T21:43:42.226Z,17.88
2022-09-08T21:44:42.230Z,17.84
2022-09-08T21:45:42.044Z,17.81
2022-09-08T21:46:42.020Z,17.83
2022-09-08T21:47:43.125Z,17.83
2022-09-08T21:48:41.789Z,17.84
2022-09-08T21:49:41.708Z,17.86
2022-09-08T21:50:41.618Z,17.88
2022-09-08T21:51:41.534Z,17.88
2022-09-08T21:52:41.487Z,17.86
2022-09-08T21:53:41.378Z,17.94
2022-09-08T21:54:41.344Z,17.91
2022-09-08T21:55:49.849Z,17.94
2022-09-08T21:57:45.495Z,17.88
2022-09-08T21:58:45.384Z,17.91
2022-09-08T21:59:45.304Z,17.90
2022-09-08T22:00:45.213Z,17.93
2022-09-08T22:01:45.219Z,17.99
2022-09-08T22:02:45.071Z,17.91
2022-09-08T22:03:44.957Z,17.86
2022-09-08T22:04:44.874Z,17.87
2022-09-08T22:05:48.980Z,17.76
2022-09-08T22:06:44.702Z,17.71
2022-09-08T22:07:44.620Z,17.69
2022-09-08T22:08:44.531Z,17.71
2022-09-08T22:09:44.444Z,17.59
2022-09-08T22:10:44.362Z,17.65
2022-09-08T22:11:44.276Z,17.72
2022-09-08T22:12:44.191Z,17.71
2022-09-08T22:13:44.101Z,17.65
2022-09-08T22:14:44.015Z,17.68
2022-09-08T22:15:43.979Z,17.59
2022-09-08T22:16:43.845Z,17.52
2022-09-08T22:17:43.765Z,17.57
2022-09-08T22:18:43.678Z,17.49
2022-09-08T22:19:43.599Z,17.43
2022-09-08T22:20:43.508Z,17.46
2022-09-08T22:21:43.418Z,17.50
2022-09-08T22:22:43.340Z,17.50
2022-09-08T22:23:43.252Z,17.50
2022-09-08T22:24:43.165Z,17.52
2022-09-08T22:25:43.082Z,17.56
2022-09-08T22:26:43.012Z,17.50
2022-09-08T22:27:42.909Z,17.63
2022-09-08T22:28:42.821Z,17.69
2022-09-08T22:29:42.739Z,17.86
2022-09-08T22:30:42.656Z,17.83
2022-09-08T22:31:42.569Z,17.88
2022-09-08T22:32:42.483Z,17.87
2022-09-08T22:33:42.395Z,17.93
2022-09-08T22:34:42.313Z,18.05
2022-09-08T22:35:42.226Z,17.96
2022-09-08T22:36:42.141Z,18.08
2022-09-08T22:37:42.056Z,17.97
2022-09-08T22:38:41.971Z,17.97
2022-09-08T22:39:41.899Z,18.09
2022-09-08T22:40:41.797Z,18.09
2022-09-08T22:41:41.712Z,17.93
2022-09-08T22:42:41.625Z,17.94
2022-09-08T22:43:41.540Z,17.91
2022-09-08T22:44:41.458Z,17.93
2022-09-08T22:45:41.369Z,17.90
2022-09-08T22:46:41.319Z,17.86
2022-09-08T22:47:41.196Z,17.84
2022-09-08T22:48:41.109Z,17.86
2022-09-08T22:49:41.029Z,17.88
2022-09-08T22:50:40.944Z,17.93
2022-09-08T22:51:40.858Z,17.91